Senjahav — LK3697 — position and weather

sailwx.info

Track history (hours):
 
Tides and Currents Weather Stations Pressure Air Temp Water Temp Dewpoint Dewpoint Depression Visibility Wind Speed Wind Dir Waves Ship Positions

Senjahav

Last reported at 2018-Feb-20 21:06 UTC. Time now 2018-Jul-16 17:54 UTC.
Position N 69°31' E 017°54'.
Warning: this ship's position is months out of date.

Length 15 m.

Type: Fishing. MMSI: 257863500.

Date/timePositionNaut miles runAvg speedWind from/ knotsBaromVisibWave heightAir tempDewpointWater temp
2018-Feb-20 21:06N 69°31' E 017°54'0 0.0
2018-Feb-20 20:57N 69°31' E 017°54'0 0.0
2018-Feb-20 20:30N 69°31' E 017°54'0 0.0
2018-Feb-20 20:00N 69°31' E 017°54'0 0.0
2018-Feb-20 19:31N 69°31' E 017°54'0 0.0
2018-Feb-20 18:18N 69°31' E 017°54'7 0.2
2018-Feb-19 05:11N 69°36' E 017°42'6 7.7
2018-Feb-19 04:23N 69°33' E 017°56'2 5.5
2018-Feb-19 04:01N 69°31' E 017°54'0 0.0
2018-Feb-19 03:31N 69°31' E 017°54'0 0.0
2018-Feb-19 03:00N 69°31' E 017°54'0 0.0
2018-Feb-19 02:30N 69°31' E 017°54'14 0.7
2018-Feb-18 07:57N 69°40' E 017°26'2 1.1
2018-Feb-18 05:41N 69°38' E 017°30'3 8.7
2018-Feb-18 05:22N 69°37' E 017°37'  
Track history (hours):
 
Tides and Currents Weather Stations Pressure Air Temp Water Temp Dewpoint Dewpoint Depression Visibility Wind Speed Wind Dir Waves Ship Positions

Senjahav

Last reported at 2018-Feb-20 21:06 UTC. Time now 2018-Jul-16 17:54 UTC.
Position N 69°31' E 017°54'.
Warning: this ship's position is months out of date.

Length 15 m.

Type: Fishing. MMSI: 257863500.

Date/timePositionNaut miles runAvg speedWind from/ knotsBaromVisibWave heightAir tempDewpointWater temp
2018-Feb-20 21:06N 69°31' E 017°54'0 0.0
2018-Feb-20 20:57N 69°31' E 017°54'0 0.0
2018-Feb-20 20:30N 69°31' E 017°54'0 0.0
2018-Feb-20 20:00N 69°31' E 017°54'0 0.0
2018-Feb-20 19:31N 69°31' E 017°54'0 0.0
2018-Feb-20 18:18N 69°31' E 017°54'7 0.2
2018-Feb-19 05:11N 69°36' E 017°42'6 7.7
2018-Feb-19 04:23N 69°33' E 017°56'2 5.5
2018-Feb-19 04:01N 69°31' E 017°54'0 0.0
2018-Feb-19 03:31N 69°31' E 017°54'0 0.0
2018-Feb-19 03:00N 69°31' E 017°54'0 0.0
2018-Feb-19 02:30N 69°31' E 017°54'14 0.7
2018-Feb-18 07:57N 69°40' E 017°26'2 1.1
2018-Feb-18 05:41N 69°38' E 017°30'3 8.7
2018-Feb-18 05:22N 69°37' E 017°37'  

Dump ship's entire track history